Time;durP1;ratioP1;P1;durP2;ratioP2;P2;SDS_P1;SDS_P2;PMS_P1;PMS_P2;Temp;Humidity;BMP_temperature;BMP_pressure;BME280_temperature;BME280_humidity;BME280_pressure;Samples;Min_cycle;Max_cycle;Signal;HPM_P1;HPM_P2
2023/12/06 00:01:03;;;;;;;38.40;24.67;;;2.60;87.60;;;;;;6244657;23;20016;-78
2023/12/06 00:03:29;;;;;;;36.93;25.27;;;2.60;87.60;;;;;;6218275;23;20024;-77
2023/12/06 00:05:54;;;;;;;36.40;25.53;;;2.60;87.60;;;;;;6244970;23;20023;-77
2023/12/06 00:08:20;;;;;;;35.93;24.90;;;2.60;87.70;;;;;;6244429;23;20337;-77
2023/12/06 00:10:47;;;;;;;39.80;26.63;;;2.70;87.70;;;;;;6244872;23;20016;-77
2023/12/06 00:13:13;;;;;;;41.57;27.80;;;2.60;87.70;;;;;;6244941;23;20016;-77
2023/12/06 00:15:39;;;;;;;38.33;25.88;;;2.70;87.70;;;;;;6217735;23;20015;-77
2023/12/06 00:18:04;;;;;;;41.63;27.57;;;2.70;87.70;;;;;;6217589;23;20039;-77
2023/12/06 00:20:30;;;;;;;37.80;25.05;;;2.70;87.70;;;;;;6217946;23;20016;-77
2023/12/06 00:22:56;;;;;;;37.67;25.50;;;2.70;87.80;;;;;;6212672;23;20096;-77
2023/12/06 00:25:22;;;;;;;41.40;27.43;;;2.70;87.80;;;;;;6214569;23;20009;-77
2023/12/06 00:27:47;;;;;;;40.47;25.93;;;2.70;87.80;;;;;;6212721;23;20080;-77
2023/12/06 00:30:13;;;;;;;42.20;26.65;;;2.70;87.80;;;;;;6212989;23;20048;-77
2023/12/06 00:32:39;;;;;;;41.60;27.43;;;2.70;87.80;;;;;;6214543;23;20013;-77
2023/12/06 00:35:06;;;;;;;37.87;25.63;;;2.70;87.90;;;;;;6216509;23;20066;-77
2023/12/06 00:37:31;;;;;;;36.63;25.77;;;2.70;87.70;;;;;;6214375;23;20434;-77
2023/12/06 00:39:57;;;;;;;41.00;27.43;;;2.70;87.80;;;;;;6213897;23;20066;-77
2023/12/06 00:42:22;;;;;;;37.20;25.47;;;2.70;87.80;;;;;;6214600;23;20016;-77
2023/12/06 00:44:48;;;;;;;37.50;25.43;;;2.70;87.80;;;;;;6215944;23;20067;-77
2023/12/06 00:47:13;;;;;;;40.47;26.37;;;2.70;87.80;;;;;;6216291;23;20012;-77
2023/12/06 00:49:39;;;;;;;36.40;25.00;;;2.70;87.80;;;;;;6214271;23;20013;-77
2023/12/06 00:52:05;;;;;;;37.87;25.67;;;2.70;87.80;;;;;;6189055;23;20092;-77
2023/12/06 00:54:30;;;;;;;38.50;26.73;;;2.70;87.80;;;;;;6214255;23;20392;-77
2023/12/06 00:56:56;;;;;;;39.03;25.80;;;2.70;87.90;;;;;;6214362;23;20079;-77
2023/12/06 00:59:21;;;;;;;39.93;27.23;;;2.80;87.90;;;;;;6214514;23;20013;-77
2023/12/06 01:01:47;;;;;;;38.83;26.30;;;2.70;87.80;;;;;;6213859;23;20044;-77
2023/12/06 01:04:12;;;;;;;35.07;24.23;;;2.70;87.90;;;;;;6214471;23;20350;-77
2023/12/06 01:06:38;;;;;;;39.22;26.00;;;2.70;87.80;;;;;;6216032;23;20009;-77
2023/12/06 01:09:06;;;;;;;38.08;24.13;;;2.80;87.80;;;;;;6215059;23;20055;-78
2023/12/06 01:11:32;;;;;;;40.97;27.07;;;2.80;87.90;;;;;;6214611;23;20093;-77
2023/12/06 01:13:57;;;;;;;38.73;25.83;;;2.80;87.90;;;;;;6215749;23;20418;-77
2023/12/06 01:16:23;;;;;;;35.53;24.00;;;2.80;87.90;;;;;;6214657;23;20076;-77
2023/12/06 01:18:49;;;;;;;40.13;26.33;;;2.70;87.80;;;;;;6215749;23;20380;-77
2023/12/06 01:21:14;;;;;;;42.63;28.53;;;2.80;87.90;;;;;;6216156;23;20017;-77
2023/12/06 01:23:40;;;;;;;36.53;25.30;;;2.80;87.90;;;;;;6240420;23;20013;-77
2023/12/06 01:26:06;;;;;;;39.67;28.30;;;2.70;87.80;;;;;;6218962;23;20326;-77
2023/12/06 01:28:31;;;;;;;39.53;26.45;;;2.80;87.90;;;;;;6219181;23;20437;-77
2023/12/06 01:30:57;;;;;;;43.60;28.80;;;2.80;88.00;;;;;;6218823;23;20070;-77
2023/12/06 01:33:22;;;;;;;45.07;29.97;;;2.80;87.90;;;;;;6219827;23;20016;-77
2023/12/06 01:35:48;;;;;;;44.43;28.67;;;2.80;87.90;;;;;;6246680;23;20384;-77
2023/12/06 01:38:13;;;;;;;40.13;26.58;;;2.80;87.90;;;;;;6218835;23;20047;-77
2023/12/06 01:40:40;;;;;;;38.58;27.13;;;2.80;88.20;;;;;;6219171;23;20012;-77
2023/12/06 01:43:06;;;;;;;48.47;31.57;;;2.80;87.80;;;;;;6218381;23;20055;-77
2023/12/06 01:45:31;;;;;;;42.43;28.00;;;2.80;87.80;;;;;;6245594;23;20008;-77
2023/12/06 01:47:58;;;;;;;40.40;27.50;;;2.80;87.80;;;;;;6246117;23;20358;-77
2023/12/06 01:50:25;;;;;;;44.22;28.13;;;2.80;87.80;;;;;;6246145;23;20012;-77
2023/12/06 01:52:51;;;;;;;39.70;26.47;;;2.80;87.80;;;;;;6245602;23;20413;-77
2023/12/06 01:55:17;;;;;;;40.73;26.60;;;2.80;87.90;;;;;;6218922;23;20027;-77
2023/12/06 01:57:43;;;;;;;42.37;27.80;;;2.80;87.90;;;;;;6245796;23;20008;-77
2023/12/06 02:00:09;;;;;;;36.17;26.35;;;2.80;87.90;;;;;;6244319;23;20016;-77
2023/12/06 02:02:35;;;;;;;44.15;28.27;;;2.80;88.30;;;;;;6246071;23;20023;-77
2023/12/06 02:05:01;;;;;;;41.83;28.73;;;2.80;88.00;;;;;;6218748;23;20015;-77
2023/12/06 02:07:29;;;;;;;39.80;27.73;;;2.80;88.00;;;;;;6245438;23;20012;-77
2023/12/06 02:09:54;;;;;;;43.63;28.17;;;2.70;88.00;;;;;;6218613;23;20016;-78
2023/12/06 02:12:20;;;;;;;40.27;27.10;;;2.80;88.10;;;;;;6218670;23;20086;-77
2023/12/06 02:14:45;;;;;;;41.20;27.55;;;2.80;88.10;;;;;;6218922;23;20019;-77
2023/12/06 02:17:11;;;;;;;40.27;26.73;;;2.80;88.10;;;;;;6245757;23;20012;-77
2023/12/06 02:19:37;;;;;;;41.55;27.30;;;2.80;88.20;;;;;;6218177;23;20012;-77
2023/12/06 02:22:04;;;;;;;38.67;25.73;;;2.80;88.20;;;;;;6245403;23;20101;-77
2023/12/06 02:24:30;;;;;;;34.87;23.37;;;2.80;88.10;;;;;;6245763;23;20380;-77
2023/12/06 02:26:57;;;;;;;38.10;24.50;;;2.80;88.20;;;;;;6245033;23;20004;-77
2023/12/06 02:29:25;;;;;;;37.17;25.17;;;2.80;88.20;;;;;;6218188;23;20020;-77
2023/12/06 02:31:52;;;;;;;31.87;22.57;;;2.80;88.20;;;;;;6245784;23;20019;-77
2023/12/06 02:34:22;;;;;;;32.37;23.53;;;2.80;88.20;;;;;;6245861;23;20054;-78
2023/12/06 02:36:51;;;;;;;31.70;23.17;;;2.80;88.20;;;;;;6245279;23;20387;-77
2023/12/06 02:39:17;;;;;;;35.23;24.63;;;2.80;88.30;;;;;;6245452;23;20012;-77
2023/12/06 02:41:44;;;;;;;35.05;25.02;;;2.80;88.30;;;;;;6245393;23;20009;-77
2023/12/06 02:44:09;;;;;;;35.58;24.90;;;2.90;88.30;;;;;;6218602;23;20020;-77
2023/12/06 02:46:36;;;;;;;34.30;24.20;;;2.80;88.50;;;;;;6245681;23;20472;-77
2023/12/06 02:49:02;;;;;;;38.53;24.57;;;2.80;88.30;;;;;;6245877;23;20020;-77
2023/12/06 02:51:28;;;;;;;38.20;25.17;;;2.90;88.40;;;;;;6244810;23;20432;-77
2023/12/06 02:53:54;;;;;;;39.17;25.08;;;2.90;88.40;;;;;;6218425;23;20044;-77
2023/12/06 02:56:19;;;;;;;40.90;25.92;;;2.90;88.40;;;;;;6245473;23;20082;-77
2023/12/06 02:58:45;;;;;;;31.98;22.80;;;2.90;88.50;;;;;;6245053;23;20058;-76
2023/12/06 03:01:11;;;;;;;32.10;22.67;;;2.90;88.50;;;;;;6218356;23;20091;-77
2023/12/06 03:03:36;;;;;;;35.90;25.27;;;2.90;88.50;;;;;;6218140;23;20056;-77
2023/12/06 03:06:02;;;;;;;37.15;24.80;;;2.90;88.50;;;;;;6218261;23;20012;-77
2023/12/06 03:08:27;;;;;;;38.88;25.55;;;2.90;88.50;;;;;;6244887;23;20070;-77
2023/12/06 03:10:53;;;;;;;41.55;27.40;;;2.90;88.60;;;;;;6218194;23;20012;-77
2023/12/06 03:13:18;;;;;;;43.00;27.77;;;2.90;88.60;;;;;;6218359;23;20038;-77
2023/12/06 03:15:44;;;;;;;40.47;26.10;;;2.90;88.60;;;;;;6243610;23;20039;-77
2023/12/06 03:18:10;;;;;;;38.33;25.98;;;2.90;88.60;;;;;;6218264;23;20532;-77
2023/12/06 03:20:35;;;;;;;36.53;24.88;;;2.90;88.70;;;;;;6217668;23;20019;-77
2023/12/06 03:23:01;;;;;;;33.85;22.85;;;2.90;88.70;;;;;;6244996;23;20404;-77
2023/12/06 03:25:26;;;;;;;32.75;22.55;;;2.90;88.70;;;;;;6245358;23;20020;-77
2023/12/06 03:27:53;;;;;;;28.95;20.30;;;2.90;88.70;;;;;;6245298;23;20019;-77
2023/12/06 03:30:18;;;;;;;29.77;19.90;;;2.90;88.70;;;;;;6245398;23;20012;-78
2023/12/06 03:32:44;;;;;;;28.90;20.67;;;2.90;88.70;;;;;;6218316;23;20012;-78
2023/12/06 03:35:09;;;;;;;26.88;19.40;;;2.90;88.70;;;;;;6218027;23;20058;-77
2023/12/06 03:37:35;;;;;;;25.98;18.80;;;2.90;88.70;;;;;;6218042;23;20389;-77
2023/12/06 03:40:00;;;;;;;29.50;19.10;;;2.90;88.80;;;;;;6218068;23;20044;-77
2023/12/06 03:42:26;;;;;;;25.63;19.15;;;3.00;88.80;;;;;;6218151;23;20016;-77
2023/12/06 03:44:52;;;;;;;26.20;19.45;;;3.00;88.90;;;;;;6245308;23;20330;-77
2023/12/06 03:47:17;;;;;;;30.08;20.83;;;2.90;88.80;;;;;;6245381;23;20083;-77
2023/12/06 03:49:43;;;;;;;31.92;22.30;;;3.00;88.90;;;;;;6244869;23;20107;-77
2023/12/06 03:52:09;;;;;;;30.98;21.70;;;3.00;88.90;;;;;;6245181;23;20012;-77
2023/12/06 03:54:35;;;;;;;26.77;19.40;;;3.00;88.90;;;;;;6245388;23;20012;-77
2023/12/06 03:57:01;;;;;;;28.33;19.90;;;3.00;88.90;;;;;;6244815;23;20747;-77
2023/12/06 03:59:27;;;;;;;25.65;18.90;;;3.00;88.90;;;;;;6244946;23;20008;-77
2023/12/06 04:01:52;;;;;;;29.60;20.67;;;3.00;88.90;;;;;;6217799;23;20016;-77
2023/12/06 04:04:18;;;;;;;32.03;22.13;;;3.00;89.40;;;;;;6244748;23;20016;-77
2023/12/06 04:06:43;;;;;;;26.25;19.08;;;3.00;89.00;;;;;;6245242;23;20012;-77
2023/12/06 04:09:10;;;;;;;25.23;18.27;;;3.00;88.90;;;;;;6246425;23;20008;-77
2023/12/06 04:11:37;;;;;;;24.40;18.37;;;3.00;89.00;;;;;;6247073;23;20337;-77
2023/12/06 04:14:03;;;;;;;23.80;18.20;;;3.00;89.00;;;;;;6219386;23;20376;-77
2023/12/06 04:16:30;;;;;;;23.75;18.67;;;3.00;89.00;;;;;;6246617;23;20015;-77
2023/12/06 04:18:55;;;;;;;24.45;19.00;;;3.10;89.10;;;;;;6219755;23;20019;-77
2023/12/06 04:21:21;;;;;;;22.45;17.35;;;3.00;89.00;;;;;;6247504;23;20008;-77
2023/12/06 04:23:48;;;;;;;22.63;17.95;;;3.00;89.00;;;;;;6246506;23;20012;-77
2023/12/06 04:26:14;;;;;;;23.17;17.03;;;3.00;89.00;;;;;;6246628;23;20049;-77
2023/12/06 04:28:39;;;;;;;23.77;17.92;;;3.00;89.10;;;;;;6246417;23;20443;-77
2023/12/06 04:31:05;;;;;;;24.48;18.85;;;3.00;89.00;;;;;;6246949;23;20015;-77
2023/12/06 04:33:31;;;;;;;26.08;18.33;;;3.00;89.00;;;;;;6246411;23;20016;-77
2023/12/06 04:35:57;;;;;;;26.60;18.80;;;3.00;89.00;;;;;;6246610;23;20087;-77
2023/12/06 04:38:22;;;;;;;24.43;17.60;;;3.00;89.10;;;;;;6246420;23;20043;-77
2023/12/06 04:40:48;;;;;;;25.40;18.15;;;3.10;89.20;;;;;;6245427;23;20039;-77
2023/12/06 04:43:16;;;;;;;22.58;16.70;;;3.10;89.20;;;;;;6247022;23;20012;-77
2023/12/06 04:45:41;;;;;;;22.80;17.30;;;3.10;89.30;;;;;;6246711;23;20441;-77
2023/12/06 04:48:07;;;;;;;22.63;16.57;;;3.10;89.30;;;;;;6247521;23;20099;-77
2023/12/06 04:50:32;;;;;;;23.90;16.40;;;3.10;89.30;;;;;;6219478;23;20023;-77
2023/12/06 04:52:58;;;;;;;24.13;17.53;;;3.10;89.30;;;;;;6194220;23;20104;-77
2023/12/06 04:55:24;;;;;;;20.53;14.97;;;3.10;89.30;;;;;;6219613;23;20015;-77
2023/12/06 04:57:49;;;;;;;21.20;16.58;;;3.10;89.30;;;;;;6219678;23;20036;-77
2023/12/06 05:00:16;;;;;;;20.87;15.80;;;3.10;89.30;;;;;;6219386;23;20090;-77
2023/12/06 05:02:41;;;;;;;20.77;15.67;;;3.10;89.30;;;;;;6246473;23;20510;-77
2023/12/06 05:05:07;;;;;;;20.58;16.08;;;3.20;89.30;;;;;;6246716;23;20083;-77
2023/12/06 05:07:32;;;;;;;21.77;16.23;;;3.10;89.30;;;;;;6246637;23;20012;-77
2023/12/06 05:09:58;;;;;;;22.38;17.23;;;3.20;89.30;;;;;;6219234;23;20337;-77
2023/12/06 05:12:24;;;;;;;22.25;17.05;;;3.10;89.10;;;;;;6218481;23;20078;-76
2023/12/06 05:14:50;;;;;;;22.90;18.00;;;3.20;89.10;;;;;;6219028;23;20012;-76
2023/12/06 05:17:15;;;;;;;21.80;15.90;;;3.20;89.00;;;;;;6194392;23;20527;-76
2023/12/06 05:19:41;;;;;;;22.75;17.23;;;3.20;89.00;;;;;;6218820;23;20016;-76
2023/12/06 05:22:06;;;;;;;21.52;15.40;;;3.20;89.00;;;;;;6245917;23;20008;-78
2023/12/06 05:24:32;;;;;;;20.48;15.93;;;3.20;89.00;;;;;;6219628;23;20015;-77
2023/12/06 05:26:58;;;;;;;22.00;16.17;;;3.20;89.00;;;;;;6219475;23;20016;-77
2023/12/06 05:29:24;;;;;;;19.45;15.40;;;3.20;89.10;;;;;;6219063;23;20493;-77
2023/12/06 05:31:49;;;;;;;22.20;16.40;;;3.20;89.10;;;;;;6246163;23;20444;-77
2023/12/06 05:34:15;;;;;;;21.38;16.45;;;3.20;89.10;;;;;;6246325;23;20085;-77
2023/12/06 05:36:40;;;;;;;20.17;15.80;;;3.20;89.10;;;;;;6219079;23;20069;-77
2023/12/06 05:39:07;;;;;;;22.98;16.95;;;3.20;89.10;;;;;;6246209;23;20008;-77
2023/12/06 05:41:33;;;;;;;19.90;15.60;;;3.20;89.10;;;;;;6218980;23;20016;-77
2023/12/06 05:43:58;;;;;;;20.63;16.08;;;3.20;89.10;;;;;;6218945;23;20062;-77
2023/12/06 05:46:24;;;;;;;19.10;15.35;;;3.20;89.10;;;;;;6218873;23;20091;-77
2023/12/06 05:48:50;;;;;;;21.75;16.23;;;3.20;89.10;;;;;;6246303;23;20075;-77
2023/12/06 05:51:15;;;;;;;18.80;15.23;;;3.20;89.10;;;;;;6246105;23;20395;-78
2023/12/06 05:53:41;;;;;;;20.23;15.77;;;3.20;89.20;;;;;;6246071;23;20012;-77
2023/12/06 05:56:08;;;;;;;20.90;15.38;;;3.20;89.30;;;;;;6246540;23;20008;-77
2023/12/06 05:58:33;;;;;;;19.05;14.60;;;3.20;89.30;;;;;;6246067;23;20008;-77
2023/12/06 06:01:00;;;;;;;18.13;14.80;;;3.20;89.40;;;;;;6244471;23;20087;-78
2023/12/06 06:03:26;;;;;;;16.52;13.73;;;3.20;89.40;;;;;;6245693;23;20012;-78
2023/12/06 06:05:52;;;;;;;20.58;16.40;;;3.20;89.50;;;;;;6218807;23;20027;-78
2023/12/06 06:08:17;;;;;;;21.15;16.02;;;3.20;89.50;;;;;;6218634;23;20016;-78
2023/12/06 06:10:43;;;;;;;26.98;19.85;;;3.30;89.50;;;;;;6246176;23;20429;-78
2023/12/06 06:13:09;;;;;;;20.52;15.85;;;3.20;89.40;;;;;;6218496;23;20044;-77
2023/12/06 06:15:35;;;;;;;25.30;18.40;;;3.20;89.40;;;;;;6219707;23;20472;-78
2023/12/06 06:18:00;;;;;;;21.40;17.92;;;3.20;89.40;;;;;;6219196;23;20012;-78
2023/12/06 06:20:26;;;;;;;21.83;16.48;;;3.30;89.50;;;;;;6220006;23;20016;-78
2023/12/06 06:22:51;;;;;;;23.45;17.80;;;3.20;89.50;;;;;;6246580;23;20461;-78
2023/12/06 06:25:17;;;;;;;27.33;19.85;;;3.30;89.50;;;;;;6244881;23;20039;-78
2023/12/06 06:27:43;;;;;;;19.75;15.63;;;3.30;89.50;;;;;;6246765;23;20020;-78
2023/12/06 06:30:10;;;;;;;19.77;14.45;;;3.30;89.50;;;;;;6248939;23;20038;-77
2023/12/06 06:32:36;;;;;;;15.70;12.77;;;3.30;89.60;;;;;;6250616;23;20012;-78
2023/12/06 06:35:01;;;;;;;17.13;13.30;;;3.30;89.60;;;;;;6222692;23;20016;-78
2023/12/06 06:37:27;;;;;;;17.70;13.43;;;3.30;89.60;;;;;;6222979;23;20031;-78
2023/12/06 06:39:53;;;;;;;18.33;13.60;;;3.30;89.60;;;;;;6221451;23;20380;-78
2023/12/06 06:42:18;;;;;;;15.90;12.43;;;3.30;89.60;;;;;;6248350;23;20016;-78
2023/12/06 06:44:44;;;;;;;15.13;12.30;;;3.30;89.70;;;;;;6249941;23;20525;-78
2023/12/06 06:47:10;;;;;;;16.35;13.15;;;3.30;89.70;;;;;;6220528;23;20008;-78
2023/12/06 06:49:39;;;;;;;13.93;12.35;;;3.30;89.70;;;;;;6249732;23;20356;-78
2023/12/06 06:52:05;;;;;;;14.93;12.43;;;3.30;89.70;;;;;;6248734;23;20345;-78
2023/12/06 06:54:30;;;;;;;14.82;12.60;;;3.50;89.80;;;;;;6245571;23;20036;-78
2023/12/06 06:56:56;;;;;;;16.17;12.68;;;3.30;89.70;;;;;;6219278;23;20008;-78
2023/12/06 06:59:22;;;;;;;14.88;12.50;;;3.40;89.80;;;;;;6219036;23;20034;-78
2023/12/06 07:01:47;;;;;;;15.50;12.70;;;3.30;89.70;;;;;;6246095;23;20024;-78
2023/12/06 07:04:13;;;;;;;17.02;12.35;;;3.30;89.70;;;;;;6246215;23;20057;-78
2023/12/06 07:06:39;;;;;;;15.80;12.05;;;3.40;89.80;;;;;;6218873;23;20020;-77
2023/12/06 07:09:05;;;;;;;14.95;11.90;;;3.40;89.80;;;;;;6218670;23;20019;-77
2023/12/06 07:11:30;;;;;;;13.55;11.70;;;3.40;90.10;;;;;;6218244;23;20099;-77
2023/12/06 07:13:56;;;;;;;16.33;12.30;;;3.40;89.80;;;;;;6218335;23;20023;-77
2023/12/06 07:16:21;;;;;;;13.55;11.43;;;3.40;89.80;;;;;;6218443;23;20015;-78
2023/12/06 07:18:49;;;;;;;13.57;12.10;;;3.40;89.80;;;;;;6245549;23;20016;-78
2023/12/06 07:21:14;;;;;;;14.38;12.18;;;3.40;89.80;;;;;;6245728;23;20103;-78
2023/12/06 07:23:40;;;;;;;15.13;12.00;;;3.40;89.80;;;;;;6245037;23;20055;-78
2023/12/06 07:26:06;;;;;;;16.52;11.85;;;3.40;89.80;;;;;;6245281;23;20372;-78
2023/12/06 07:28:33;;;;;;;14.95;10.82;;;3.40;89.80;;;;;;6245633;23;20100;-78
2023/12/06 07:30:59;;;;;;;15.30;11.50;;;3.40;89.80;;;;;;6245416;23;20456;-78
2023/12/06 07:33:26;;;;;;;14.73;11.48;;;3.40;89.80;;;;;;6218305;23;20016;-78
2023/12/06 07:35:53;;;;;;;14.85;12.00;;;3.40;89.80;;;;;;6218258;23;20038;-78
2023/12/06 07:38:19;;;;;;;16.35;11.38;;;3.40;89.90;;;;;;6245638;23;20048;-78
2023/12/06 07:40:44;;;;;;;13.95;11.88;;;3.40;89.80;;;;;;6244993;23;20389;-78
2023/12/06 07:43:10;;;;;;;16.75;12.90;;;3.40;89.80;;;;;;6245687;23;20019;-78
2023/12/06 07:45:35;;;;;;;15.63;11.18;;;3.40;89.80;;;;;;6247638;23;20035;-78
2023/12/06 07:48:02;;;;;;;14.57;10.63;;;3.40;89.80;;;;;;6247043;23;20023;-78
2023/12/06 07:50:28;;;;;;;15.05;11.60;;;3.50;89.80;;;;;;6247260;23;20082;-78
2023/12/06 07:52:54;;;;;;;17.17;12.65;;;3.40;89.80;;;;;;6220120;23;20051;-78
2023/12/06 07:55:20;;;;;;;16.77;13.75;;;3.50;89.80;;;;;;6246953;23;20058;-78
2023/12/06 07:57:46;;;;;;;16.52;12.00;;;3.50;89.80;;;;;;6220219;23;20027;-78
2023/12/06 08:00:13;;;;;;;13.40;11.70;;;3.50;89.80;;;;;;6220213;23;20019;-78
2023/12/06 08:02:39;;;;;;;16.08;12.25;;;3.50;89.80;;;;;;6247355;23;20012;-77
2023/12/06 08:05:10;;;;;;;15.38;12.00;;;3.50;89.80;;;;;;6247251;23;20070;-77
2023/12/06 08:07:37;;;;;;;14.68;11.73;;;3.50;89.80;;;;;;6247084;23;20449;-77
2023/12/06 08:10:10;;;;;;;14.48;10.63;;;3.50;89.80;;;;;;6220132;23;20027;-77
2023/12/06 08:12:36;;;;;;;13.60;10.93;;;3.50;89.80;;;;;;6247931;23;20515;-78
2023/12/06 08:15:06;;;;;;;15.80;11.57;;;3.50;89.80;;;;;;6246918;23;20082;-78
2023/12/06 08:17:32;;;;;;;15.25;12.88;;;3.50;89.90;;;;;;6247103;23;20008;-77
2023/12/06 08:19:57;;;;;;;13.05;11.55;;;3.50;89.80;;;;;;6220131;23;20528;-77
2023/12/06 08:22:23;;;;;;;16.40;12.63;;;3.50;89.80;;;;;;6219872;23;20047;-77
2023/12/06 08:24:50;;;;;;;13.77;10.95;;;3.50;89.70;;;;;;6219888;23;20380;-77
2023/12/06 08:27:17;;;;;;;16.35;11.88;;;3.50;89.70;;;;;;6246718;23;20512;-77
2023/12/06 08:29:42;;;;;;;16.65;12.88;;;3.50;89.70;;;;;;6247024;23;20061;-77
2023/12/06 08:32:08;;;;;;;16.98;13.82;;;3.50;89.70;;;;;;6246420;23;20442;-77
2023/12/06 08:34:34;;;;;;;18.38;13.55;;;3.50;89.70;;;;;;6247017;23;20008;-77
2023/12/06 08:36:59;;;;;;;15.32;12.90;;;3.50;89.70;;;;;;6219851;23;20008;-77
2023/12/06 08:39:25;;;;;;;16.20;12.88;;;3.50;89.70;;;;;;6219734;23;20038;-77
2023/12/06 08:41:50;;;;;;;16.20;12.43;;;3.50;89.70;;;;;;6219765;23;20019;-77
2023/12/06 08:44:16;;;;;;;17.77;12.35;;;3.50;89.70;;;;;;6220077;23;20031;-78
2023/12/06 08:46:42;;;;;;;12.95;11.02;;;3.60;89.80;;;;;;6247072;23;20392;-77
2023/12/06 08:49:08;;;;;;;15.02;12.32;;;3.60;89.80;;;;;;6219621;23;20016;-77
2023/12/06 08:51:33;;;;;;;15.02;13.05;;;3.60;89.80;;;;;;6219857;23;20035;-77
2023/12/06 08:53:59;;;;;;;18.65;13.07;;;3.60;89.80;;;;;;6219413;23;20016;-77
2023/12/06 08:56:24;;;;;;;14.60;11.73;;;3.60;89.80;;;;;;6219732;23;20083;-77
2023/12/06 08:58:50;;;;;;;14.77;11.03;;;3.60;89.90;;;;;;6219484;23;20054;-77
2023/12/06 09:01:16;;;;;;;14.07;11.95;;;3.60;89.90;;;;;;6246719;23;20111;-78
2023/12/06 09:03:42;;;;;;;16.90;14.02;;;3.60;89.90;;;;;;6246867;23;20016;-78
2023/12/06 09:06:08;;;;;;;18.17;12.98;;;3.60;89.90;;;;;;6246754;23;20016;-78
2023/12/06 09:08:34;;;;;;;15.82;12.40;;;3.60;90.00;;;;;;6219468;23;20012;-78
2023/12/06 09:11:00;;;;;;;17.58;13.80;;;3.60;90.00;;;;;;6249537;23;20012;-79
2023/12/06 09:13:26;;;;;;;15.05;12.60;;;3.60;89.90;;;;;;6196699;23;20027;-79
2023/12/06 09:15:52;;;;;;;19.23;14.30;;;3.70;90.00;;;;;;6249974;23;20507;-79
2023/12/06 09:18:18;;;;;;;19.48;15.07;;;3.60;90.00;;;;;;6249598;23;20012;-80
2023/12/06 09:20:44;;;;;;;19.05;13.95;;;3.80;90.00;;;;;;6249367;23;20005;-79
2023/12/06 09:23:09;;;;;;;20.17;14.57;;;3.70;90.00;;;;;;6220161;23;20020;-78
2023/12/06 09:25:35;;;;;;;15.77;13.45;;;3.70;90.10;;;;;;6246739;23;20012;-78
2023/12/06 09:28:04;;;;;;;17.75;13.63;;;3.70;90.10;;;;;;6246876;23;20048;-78
2023/12/06 09:30:30;;;;;;;17.00;13.90;;;3.70;90.10;;;;;;6247110;23;20020;-79
2023/12/06 09:32:56;;;;;;;22.25;14.90;;;3.70;90.10;;;;;;6219062;23;20409;-78
2023/12/06 09:35:22;;;;;;;16.67;13.27;;;3.70;90.20;;;;;;6244345;23;20475;-78
2023/12/06 09:37:49;;;;;;;21.70;13.60;;;3.70;90.20;;;;;;6246299;23;20012;-78
2023/12/06 09:40:14;;;;;;;16.90;12.93;;;3.70;90.20;;;;;;6245858;23;20087;-78
2023/12/06 09:42:44;;;;;;;18.70;13.88;;;3.70;90.30;;;;;;6219088;23;20047;-77
2023/12/06 09:45:09;;;;;;;16.98;13.45;;;3.80;90.30;;;;;;6246051;23;20087;-77
2023/12/06 09:47:35;;;;;;;19.10;13.90;;;3.80;90.40;;;;;;6246098;23;20069;-77
2023/12/06 09:50:01;;;;;;;16.13;12.52;;;3.80;90.40;;;;;;6246138;23;20016;-77
2023/12/06 09:52:28;;;;;;;16.50;13.98;;;3.80;90.40;;;;;;6246127;23;20016;-77
2023/12/06 09:54:55;;;;;;;19.23;13.35;;;3.80;90.50;;;;;;6219106;23;20019;-77
2023/12/06 09:57:21;;;;;;;16.73;13.80;;;3.80;90.50;;;;;;6218973;23;20012;-77
2023/12/06 09:59:46;;;;;;;16.55;12.93;;;3.80;90.50;;;;;;6245457;23;20015;-77
2023/12/06 10:02:12;;;;;;;18.67;13.35;;;3.80;90.50;;;;;;6245913;23;20036;-77
2023/12/06 10:04:37;;;;;;;14.75;12.63;;;3.90;90.50;;;;;;6218653;23;20436;-77
2023/12/06 10:07:03;;;;;;;19.70;13.55;;;3.90;90.50;;;;;;6218784;23;20079;-77
2023/12/06 10:09:29;;;;;;;19.83;14.13;;;3.90;90.50;;;;;;6218778;23;20016;-77
2023/12/06 10:12:06;;;;;;;19.40;13.75;;;3.90;90.50;;;;;;6218685;23;20012;-77
2023/12/06 10:14:32;;;;;;;17.42;12.70;;;3.90;90.60;;;;;;6218863;23;20020;-77
2023/12/06 10:16:58;;;;;;;16.58;13.13;;;4.00;90.50;;;;;;6245834;23;20046;-77
2023/12/06 10:19:24;;;;;;;18.75;13.77;;;4.00;90.50;;;;;;6245719;23;20046;-77
2023/12/06 10:21:51;;;;;;;17.33;14.00;;;3.90;90.50;;;;;;6245702;23;20085;-77
2023/12/06 10:24:17;;;;;;;17.70;14.07;;;4.00;90.50;;;;;;6245606;23;20425;-77
2023/12/06 10:26:42;;;;;;;19.48;14.50;;;4.00;90.50;;;;;;6246389;23;20147;-77
2023/12/06 10:29:09;;;;;;;22.05;16.33;;;4.00;90.50;;;;;;6245877;23;20052;-78
2023/12/06 10:31:45;;;;;;;17.05;13.73;;;4.00;90.50;;;;;;6218724;23;20336;-78
2023/12/06 10:34:11;;;;;;;15.35;12.40;;;4.00;90.60;;;;;;6218241;23;20016;-78
2023/12/06 10:36:37;;;;;;;18.77;14.43;;;4.00;90.60;;;;;;6245767;23;20079;-78
2023/12/06 10:39:10;;;;;;;17.85;14.18;;;4.10;90.60;;;;;;6245474;23;20449;-78
2023/12/06 10:41:41;;;;;;;21.40;15.30;;;4.10;90.60;;;;;;6245242;23;20544;-78
2023/12/06 10:44:09;;;;;;;20.75;14.70;;;4.10;90.60;;;;;;6245837;23;20337;-78
2023/12/06 10:46:36;;;;;;;17.05;13.57;;;4.10;90.60;;;;;;6245694;23;20044;-77
2023/12/06 10:49:02;;;;;;;17.05;12.00;;;4.10;90.60;;;;;;6218469;23;20015;-77
2023/12/06 10:51:29;;;;;;;16.15;13.07;;;4.10;90.60;;;;;;6218401;23;20399;-78
2023/12/06 10:53:56;;;;;;;17.70;14.00;;;4.10;90.60;;;;;;6218569;23;20023;-78
2023/12/06 10:56:23;;;;;;;17.35;13.27;;;4.10;90.60;;;;;;6218456;23;20039;-78
2023/12/06 10:58:51;;;;;;;17.55;13.68;;;4.10;90.60;;;;;;6245156;23;20373;-78
2023/12/06 11:01:16;;;;;;;19.17;14.45;;;4.20;90.60;;;;;;6218565;23;20378;-78
2023/12/06 11:03:42;;;;;;;16.88;14.25;;;4.20;90.60;;;;;;6218142;23;20101;-78
2023/12/06 11:06:35;;;;;;;18.65;13.65;;;4.20;90.60;;;;;;6245489;23;20011;-77
2023/12/06 11:09:14;;;;;;;20.08;12.95;;;4.20;90.70;;;;;;6244774;23;20524;-78
2023/12/06 11:11:55;;;;;;;16.73;12.25;;;4.20;90.70;;;;;;6244460;23;20090;-78
2023/12/06 11:15:01;;;;;;;16.52;12.35;;;4.20;90.70;;;;;;6218186;23;20066;-78
2023/12/06 11:18:02;;;;;;;16.58;12.05;;;4.20;90.70;;;;;;6245169;23;20008;-78
2023/12/06 11:20:28;;;;;;;16.27;12.07;;;4.20;90.80;;;;;;6245347;23;20075;-78
2023/12/06 11:22:56;;;;;;;15.50;12.32;;;4.20;90.70;;;;;;6244536;23;20047;-78
2023/12/06 11:25:22;;;;;;;16.58;12.40;;;4.30;90.80;;;;;;6244835;23;20886;-78
2023/12/06 11:27:49;;;;;;;15.75;12.02;;;4.30;90.80;;;;;;6217896;23;20016;-78
2023/12/06 11:30:17;;;;;;;15.93;11.75;;;4.30;90.80;;;;;;6244577;23;20445;-78
2023/12/06 11:32:44;;;;;;;14.82;11.32;;;4.30;90.80;;;;;;6217574;23;20445;-78
2023/12/06 11:35:11;;;;;;;13.65;11.35;;;4.30;90.80;;;;;;6217844;23;20450;-78
2023/12/06 11:37:36;;;;;;;14.02;10.38;;;4.40;90.80;;;;;;6218649;23;20079;-78
2023/12/06 11:40:18;;;;;;;15.20;11.27;;;4.40;90.80;;;;;;6245177;23;20381;-78
2023/12/06 11:42:57;;;;;;;14.73;10.80;;;4.40;90.90;;;;;;6246266;23;20498;-77
2023/12/06 11:45:31;;;;;;;11.93;10.43;;;4.40;90.90;;;;;;6218192;23;20019;-77
2023/12/06 11:47:58;;;;;;;15.98;11.20;;;4.40;90.90;;;;;;6217598;23;20012;-77
2023/12/06 11:50:24;;;;;;;12.85;10.63;;;4.40;90.80;;;;;;6217899;23;20011;-77
2023/12/06 11:52:52;;;;;;;14.35;10.13;;;4.40;90.80;;;;;;6243129;23;20012;-77
2023/12/06 11:55:18;;;;;;;16.00;10.68;;;4.40;90.80;;;;;;6244773;23;20347;-78
2023/12/06 11:58:01;;;;;;;12.85;10.18;;;4.40;90.80;;;;;;6244853;23;20329;-78
2023/12/06 12:00:29;;;;;;;14.30;9.80;;;4.50;90.80;;;;;;6243353;23;20319;-77
2023/12/06 12:02:56;;;;;;;13.82;10.38;;;4.40;90.80;;;;;;6245299;23;20035;-78
2023/12/06 12:05:23;;;;;;;13.07;9.82;;;4.40;90.80;;;;;;6245516;23;20333;-77
2023/12/06 12:07:50;;;;;;;11.55;9.27;;;4.50;90.80;;;;;;6245054;23;20380;-77
2023/12/06 12:10:16;;;;;;;10.85;8.75;;;4.40;90.80;;;;;;6245581;23;20012;-78
2023/12/06 12:12:42;;;;;;;12.75;8.75;;;4.50;90.80;;;;;;6245356;23;20012;-78
2023/12/06 12:15:08;;;;;;;12.68;9.02;;;4.50;90.80;;;;;;6217484;23;20534;-78
2023/12/06 12:17:35;;;;;;;10.73;8.35;;;4.50;90.80;;;;;;6245042;23;20095;-78
2023/12/06 12:20:03;;;;;;;11.30;8.68;;;4.50;90.90;;;;;;6244891;23;20097;-78
2023/12/06 12:22:29;;;;;;;13.18;9.40;;;4.50;90.90;;;;;;6244480;23;20020;-78
2023/12/06 12:24:55;;;;;;;14.15;9.43;;;4.50;90.90;;;;;;6244758;23;20314;-78
2023/12/06 12:27:21;;;;;;;14.82;11.07;;;4.50;90.80;;;;;;6243662;23;20012;-78
2023/12/06 12:29:54;;;;;;;11.98;9.35;;;4.50;90.90;;;;;;6245655;23;20306;-78
2023/12/06 12:32:20;;;;;;;12.82;9.55;;;4.50;90.90;;;;;;6246726;23;20083;-78
2023/12/06 12:34:46;;;;;;;16.63;10.48;;;4.50;90.90;;;;;;6218078;23;20043;-77